sensor_id;sensor_type;location;lat;lon;timestamp;pressure;altitude;pressure_sealevel;temperature;humidity
58979;BME280;44763;50.464;30.612;2024-01-06T00:00:51;100279.31;;;-3.71;100.00
58979;BME280;44763;50.464;30.612;2024-01-06T00:02:52;100283.98;;;-3.74;100.00
58979;BME280;44763;50.464;30.612;2024-01-06T00:04:54;100290.66;;;-3.69;100.00
58979;BME280;44763;50.464;30.612;2024-01-06T00:06:56;100286.30;;;-3.61;100.00
58979;BME280;44763;50.464;30.612;2024-01-06T00:08:58;100282.98;;;-3.55;100.00
58979;BME280;44763;50.464;30.612;2024-01-06T00:10:59;100287.36;;;-3.50;100.00
58979;BME280;44763;50.464;30.612;2024-01-06T00:13:04;100293.94;;;-3.50;100.00
58979;BME280;44763;50.464;30.612;2024-01-06T00:15:06;100294.30;;;-3.53;100.00
58979;BME280;44763;50.464;30.612;2024-01-06T00:17:08;100291.52;;;-3.58;100.00
58979;BME280;44763;50.464;30.612;2024-01-06T00:19:10;100295.86;;;-3.66;100.00
58979;BME280;44763;50.464;30.612;2024-01-06T00:21:12;100296.04;;;-3.72;100.00
58979;BME280;44763;50.464;30.612;2024-01-06T00:23:14;100301.94;;;-3.77;100.00
58979;BME280;44763;50.464;30.612;2024-01-06T00:25:16;100302.66;;;-3.72;100.00
58979;BME280;44763;50.464;30.612;2024-01-06T00:27:17;100300.59;;;-3.67;100.00
58979;BME280;44763;50.464;30.612;2024-01-06T00:29:19;100298.26;;;-3.63;100.00
58979;BME280;44763;50.464;30.612;2024-01-06T00:31:21;100299.48;;;-3.63;100.00
58979;BME280;44763;50.464;30.612;2024-01-06T00:33:22;100301.69;;;-3.68;100.00
58979;BME280;44763;50.464;30.612;2024-01-06T00:35:25;100304.83;;;-3.71;100.00
58979;BME280;44763;50.464;30.612;2024-01-06T00:37:26;100314.66;;;-3.73;100.00
58979;BME280;44763;50.464;30.612;2024-01-06T00:39:28;100328.32;;;-3.72;100.00
58979;BME280;44763;50.464;30.612;2024-01-06T00:41:30;100328.51;;;-3.69;100.00
58979;BME280;44763;50.464;30.612;2024-01-06T00:43:32;100326.50;;;-3.62;100.00
58979;BME280;44763;50.464;30.612;2024-01-06T00:45:33;100331.21;;;-3.52;100.00
58979;BME280;44763;50.464;30.612;2024-01-06T00:47:35;100329.04;;;-3.42;100.00
58979;BME280;44763;50.464;30.612;2024-01-06T00:49:37;100333.62;;;-3.35;100.00
58979;BME280;44763;50.464;30.612;2024-01-06T00:51:39;100334.90;;;-3.31;100.00
58979;BME280;44763;50.464;30.612;2024-01-06T00:53:41;100337.44;;;-3.29;100.00
58979;BME280;44763;50.464;30.612;2024-01-06T00:55:43;100338.06;;;-3.34;100.00
58979;BME280;44763;50.464;30.612;2024-01-06T00:57:45;100340.10;;;-3.38;100.00
58979;BME280;44763;50.464;30.612;2024-01-06T00:59:46;100343.17;;;-3.40;100.00
58979;BME280;44763;50.464;30.612;2024-01-06T01:01:49;100326.41;;;-3.44;100.00
58979;BME280;44763;50.464;30.612;2024-01-06T01:03:50;100323.95;;;-3.47;100.00
58979;BME280;44763;50.464;30.612;2024-01-06T01:05:52;100327.60;;;-3.44;100.00
58979;BME280;44763;50.464;30.612;2024-01-06T01:07:54;100320.19;;;-3.37;100.00
58979;BME280;44763;50.464;30.612;2024-01-06T01:09:56;100319.39;;;-3.33;100.00
58979;BME280;44763;50.464;30.612;2024-01-06T01:11:58;100320.29;;;-3.33;100.00
58979;BME280;44763;50.464;30.612;2024-01-06T01:14:00;100314.23;;;-3.36;100.00
58979;BME280;44763;50.464;30.612;2024-01-06T01:16:02;100307.66;;;-3.37;100.00
58979;BME280;44763;50.464;30.612;2024-01-06T01:18:04;100301.03;;;-3.39;100.00
58979;BME280;44763;50.464;30.612;2024-01-06T01:20:06;100298.73;;;-3.38;100.00
58979;BME280;44763;50.464;30.612;2024-01-06T01:22:08;100293.55;;;-3.30;100.00
58979;BME280;44763;50.464;30.612;2024-01-06T01:24:10;100285.02;;;-3.22;100.00
58979;BME280;44763;50.464;30.612;2024-01-06T01:26:12;100283.52;;;-3.16;100.00
58979;BME280;44763;50.464;30.612;2024-01-06T01:28:14;100279.98;;;-3.12;100.00
58979;BME280;44763;50.464;30.612;2024-01-06T01:30:15;100274.77;;;-3.15;100.00
58979;BME280;44763;50.464;30.612;2024-01-06T01:32:18;100275.08;;;-3.17;100.00
58979;BME280;44763;50.464;30.612;2024-01-06T01:34:20;100277.80;;;-3.18;100.00
58979;BME280;44763;50.464;30.612;2024-01-06T01:36:24;100270.70;;;-3.19;100.00
58979;BME280;44763;50.464;30.612;2024-01-06T01:38:26;100272.88;;;-3.15;100.00
58979;BME280;44763;50.464;30.612;2024-01-06T01:40:27;100273.66;;;-3.06;100.00
58979;BME280;44763;50.464;30.612;2024-01-06T01:42:30;100263.50;;;-3.00;100.00
58979;BME280;44763;50.464;30.612;2024-01-06T01:44:32;100260.88;;;-2.97;100.00
58979;BME280;44763;50.464;30.612;2024-01-06T01:46:33;100259.90;;;-3.00;100.00
58979;BME280;44763;50.464;30.612;2024-01-06T01:48:35;100246.98;;;-3.04;100.00
58979;BME280;44763;50.464;30.612;2024-01-06T01:50:37;100238.99;;;-3.10;100.00
58979;BME280;44763;50.464;30.612;2024-01-06T01:52:40;100236.73;;;-3.17;100.00
58979;BME280;44763;50.464;30.612;2024-01-06T01:54:42;100242.73;;;-3.19;100.00
58979;BME280;44763;50.464;30.612;2024-01-06T01:56:46;100249.30;;;-3.13;100.00
58979;BME280;44763;50.464;30.612;2024-01-06T01:58:48;100251.32;;;-3.07;100.00
58979;BME280;44763;50.464;30.612;2024-01-06T02:00:50;100258.17;;;-3.05;100.00
58979;BME280;44763;50.464;30.612;2024-01-06T02:02:52;100247.71;;;-3.07;100.00
58979;BME280;44763;50.464;30.612;2024-01-06T02:04:55;100239.57;;;-3.08;100.00
58979;BME280;44763;50.464;30.612;2024-01-06T02:06:57;100240.95;;;-3.08;100.00
58979;BME280;44763;50.464;30.612;2024-01-06T02:08:59;100243.47;;;-3.11;100.00
58979;BME280;44763;50.464;30.612;2024-01-06T02:11:01;100243.05;;;-3.05;100.00
58979;BME280;44763;50.464;30.612;2024-01-06T02:13:12;100241.48;;;-2.98;100.00
58979;BME280;44763;50.464;30.612;2024-01-06T02:15:14;100243.95;;;-2.88;100.00
58979;BME280;44763;50.464;30.612;2024-01-06T02:17:16;100246.67;;;-2.87;100.00
58979;BME280;44763;50.464;30.612;2024-01-06T02:19:18;100251.38;;;-2.89;100.00
58979;BME280;44763;50.464;30.612;2024-01-06T02:21:21;100248.17;;;-2.88;100.00
58979;BME280;44763;50.464;30.612;2024-01-06T02:23:25;100237.09;;;-2.87;100.00
58979;BME280;44763;50.464;30.612;2024-01-06T02:25:27;100232.24;;;-2.84;100.00
58979;BME280;44763;50.464;30.612;2024-01-06T02:27:29;100226.09;;;-2.84;100.00
58979;BME280;44763;50.464;30.612;2024-01-06T02:29:31;100227.66;;;-2.81;100.00
58979;BME280;44763;50.464;30.612;2024-01-06T02:31:33;100226.53;;;-2.75;100.00
58979;BME280;44763;50.464;30.612;2024-01-06T02:33:35;100234.88;;;-2.72;100.00
58979;BME280;44763;50.464;30.612;2024-01-06T02:35:37;100229.23;;;-2.71;100.00
58979;BME280;44763;50.464;30.612;2024-01-06T02:37:41;100222.61;;;-2.73;100.00
58979;BME280;44763;50.464;30.612;2024-01-06T02:39:43;100207.80;;;-2.78;100.00
58979;BME280;44763;50.464;30.612;2024-01-06T02:41:47;100202.71;;;-2.80;100.00
58979;BME280;44763;50.464;30.612;2024-01-06T02:43:49;100202.71;;;-2.82;100.00
58979;BME280;44763;50.464;30.612;2024-01-06T02:45:51;100209.57;;;-2.86;100.00
58979;BME280;44763;50.464;30.612;2024-01-06T02:47:52;100201.34;;;-2.83;100.00
58979;BME280;44763;50.464;30.612;2024-01-06T02:49:54;100198.89;;;-2.75;100.00
58979;BME280;44763;50.464;30.612;2024-01-06T02:51:59;100204.30;;;-2.67;100.00
58979;BME280;44763;50.464;30.612;2024-01-06T02:54:01;100204.42;;;-2.62;100.00
58979;BME280;44763;50.464;30.612;2024-01-06T02:56:04;100199.27;;;-2.60;100.00
58979;BME280;44763;50.464;30.612;2024-01-06T02:58:06;100191.06;;;-2.62;100.00
58979;BME280;44763;50.464;30.612;2024-01-06T03:00:08;100197.73;;;-2.63;100.00
58979;BME280;44763;50.464;30.612;2024-01-06T03:02:11;100202.61;;;-2.63;100.00
58979;BME280;44763;50.464;30.612;2024-01-06T03:04:13;100206.11;;;-2.64;100.00
58979;BME280;44763;50.464;30.612;2024-01-06T03:06:15;100201.71;;;-2.63;100.00
58979;BME280;44763;50.464;30.612;2024-01-06T03:08:17;100205.52;;;-2.58;100.00
58979;BME280;44763;50.464;30.612;2024-01-06T03:10:19;100202.05;;;-2.50;100.00
58979;BME280;44763;50.464;30.612;2024-01-06T03:12:21;100205.24;;;-2.41;100.00
58979;BME280;44763;50.464;30.612;2024-01-06T03:14:23;100206.16;;;-2.34;100.00
58979;BME280;44763;50.464;30.612;2024-01-06T03:16:25;100203.66;;;-2.33;100.00
58979;BME280;44763;50.464;30.612;2024-01-06T03:18:29;100200.56;;;-2.39;100.00
58979;BME280;44763;50.464;30.612;2024-01-06T03:20:31;100198.15;;;-2.44;100.00
58979;BME280;44763;50.464;30.612;2024-01-06T03:22:33;100189.28;;;-2.49;100.00
58979;BME280;44763;50.464;30.612;2024-01-06T03:24:34;100182.33;;;-2.51;100.00
58979;BME280;44763;50.464;30.612;2024-01-06T03:26:37;100178.04;;;-2.47;100.00
58979;BME280;44763;50.464;30.612;2024-01-06T03:28:39;100169.14;;;-2.42;100.00
58979;BME280;44763;50.464;30.612;2024-01-06T03:30:41;100172.96;;;-2.40;100.00
58979;BME280;44763;50.464;30.612;2024-01-06T03:32:45;100169.66;;;-2.45;100.00
58979;BME280;44763;50.464;30.612;2024-01-06T03:34:47;100171.89;;;-2.49;100.00
58979;BME280;44763;50.464;30.612;2024-01-06T03:36:49;100181.13;;;-2.52;100.00
58979;BME280;44763;50.464;30.612;2024-01-06T03:38:51;100178.11;;;-2.53;100.00
58979;BME280;44763;50.464;30.612;2024-01-06T03:40:52;100173.14;;;-2.45;100.00
58979;BME280;44763;50.464;30.612;2024-01-06T03:42:54;100174.50;;;-2.42;100.00
58979;BME280;44763;50.464;30.612;2024-01-06T03:44:56;100175.91;;;-2.42;100.00
58979;BME280;44763;50.464;30.612;2024-01-06T03:46:58;100177.42;;;-2.46;100.00
58979;BME280;44763;50.464;30.612;2024-01-06T03:49:01;100173.82;;;-2.49;100.00
58979;BME280;44763;50.464;30.612;2024-01-06T03:51:06;100177.82;;;-2.52;100.00
58979;BME280;44763;50.464;30.612;2024-01-06T03:53:08;100178.47;;;-2.46;100.00
58979;BME280;44763;50.464;30.612;2024-01-06T03:55:10;100182.27;;;-2.39;100.00
58979;BME280;44763;50.464;30.612;2024-01-06T03:57:12;100180.37;;;-2.31;100.00
58979;BME280;44763;50.464;30.612;2024-01-06T03:59:16;100179.16;;;-2.27;100.00
58979;BME280;44763;50.464;30.612;2024-01-06T04:01:18;100182.24;;;-2.28;100.00
58979;BME280;44763;50.464;30.612;2024-01-06T04:03:19;100185.89;;;-2.30;100.00
58979;BME280;44763;50.464;30.612;2024-01-06T04:05:21;100193.26;;;-2.34;100.00
58979;BME280;44763;50.464;30.612;2024-01-06T04:07:24;100199.35;;;-2.37;100.00
58979;BME280;44763;50.464;30.612;2024-01-06T04:09:26;100202.29;;;-2.36;100.00
58979;BME280;44763;50.464;30.612;2024-01-06T04:11:27;100204.21;;;-2.31;100.00
58979;BME280;44763;50.464;30.612;2024-01-06T04:13:32;100201.18;;;-2.28;100.00
58979;BME280;44763;50.464;30.612;2024-01-06T04:15:33;100198.58;;;-2.28;100.00
58979;BME280;44763;50.464;30.612;2024-01-06T04:17:36;100193.77;;;-2.31;100.00
58979;BME280;44763;50.464;30.612;2024-01-06T04:19:37;100194.39;;;-2.36;100.00
58979;BME280;44763;50.464;30.612;2024-01-06T04:22:40;100171.85;;;-2.52;100.00
58979;BME280;44763;50.464;30.612;2024-01-06T04:24:44;100150.69;;;-2.50;100.00
58979;BME280;44763;50.464;30.612;2024-01-06T04:26:47;100149.59;;;-2.42;100.00
58979;BME280;44763;50.464;30.612;2024-01-06T04:28:49;100144.16;;;-2.39;100.00
58979;BME280;44763;50.464;30.612;2024-01-06T04:30:51;100144.29;;;-2.40;100.00
58979;BME280;44763;50.464;30.612;2024-01-06T04:32:53;100149.48;;;-2.40;100.00
58979;BME280;44763;50.464;30.612;2024-01-06T04:34:55;100152.58;;;-2.42;100.00
58979;BME280;44763;50.464;30.612;2024-01-06T04:36:58;100168.92;;;-2.42;100.00
58979;BME280;44763;50.464;30.612;2024-01-06T04:39:01;100172.69;;;-2.41;100.00
58979;BME280;44763;50.464;30.612;2024-01-06T04:41:03;100176.70;;;-2.34;100.00
58979;BME280;44763;50.464;30.612;2024-01-06T04:43:04;100186.66;;;-2.27;100.00
58979;BME280;44763;50.464;30.612;2024-01-06T04:45:07;100197.11;;;-2.27;100.00
58979;BME280;44763;50.464;30.612;2024-01-06T04:47:10;100194.49;;;-2.34;100.00
58979;BME280;44763;50.464;30.612;2024-01-06T04:49:12;100188.83;;;-2.38;100.00
58979;BME280;44763;50.464;30.612;2024-01-06T04:51:14;100191.67;;;-2.41;100.00
58979;BME280;44763;50.464;30.612;2024-01-06T04:53:16;100189.81;;;-2.44;100.00
58979;BME280;44763;50.464;30.612;2024-01-06T04:55:18;100188.15;;;-2.41;100.00
58979;BME280;44763;50.464;30.612;2024-01-06T04:57:20;100184.06;;;-2.32;100.00
58979;BME280;44763;50.464;30.612;2024-01-06T04:59:23;100184.36;;;-2.26;100.00
58979;BME280;44763;50.464;30.612;2024-01-06T05:01:25;100178.23;;;-2.31;100.00
58979;BME280;44763;50.464;30.612;2024-01-06T05:03:27;100174.14;;;-2.37;100.00
58979;BME280;44763;50.464;30.612;2024-01-06T05:05:29;100173.08;;;-2.44;100.00
58979;BME280;44763;50.464;30.612;2024-01-06T05:07:31;100170.56;;;-2.48;100.00
58979;BME280;44763;50.464;30.612;2024-01-06T05:09:33;100173.88;;;-2.50;100.00
58979;BME280;44763;50.464;30.612;2024-01-06T05:11:35;100179.74;;;-2.45;100.00
58979;BME280;44763;50.464;30.612;2024-01-06T05:13:37;100177.81;;;-2.35;100.00
58979;BME280;44763;50.464;30.612;2024-01-06T05:15:39;100180.89;;;-2.34;100.00
58979;BME280;44763;50.464;30.612;2024-01-06T05:17:41;100181.62;;;-2.37;100.00
58979;BME280;44763;50.464;30.612;2024-01-06T05:19:43;100175.21;;;-2.37;100.00
58979;BME280;44763;50.464;30.612;2024-01-06T05:21:46;100175.45;;;-2.38;100.00
58979;BME280;44763;50.464;30.612;2024-01-06T05:23:48;100168.15;;;-2.38;100.00
58979;BME280;44763;50.464;30.612;2024-01-06T05:25:51;100173.92;;;-2.31;100.00
58979;BME280;44763;50.464;30.612;2024-01-06T05:27:53;100167.00;;;-2.27;100.00
58979;BME280;44763;50.464;30.612;2024-01-06T05:29:54;100169.71;;;-2.21;100.00
58979;BME280;44763;50.464;30.612;2024-01-06T05:31:57;100168.83;;;-2.23;100.00
58979;BME280;44763;50.464;30.612;2024-01-06T05:33:58;100164.91;;;-2.25;100.00
58979;BME280;44763;50.464;30.612;2024-01-06T05:36:01;100165.69;;;-2.26;100.00
58979;BME280;44763;50.464;30.612;2024-01-06T05:38:03;100157.95;;;-2.29;100.00
58979;BME280;44763;50.464;30.612;2024-01-06T05:40:06;100157.76;;;-2.29;100.00
58979;BME280;44763;50.464;30.612;2024-01-06T05:42:10;100152.69;;;-2.24;100.00
58979;BME280;44763;50.464;30.612;2024-01-06T05:44:16;100152.24;;;-2.18;100.00
58979;BME280;44763;50.464;30.612;2024-01-06T05:46:22;100154.05;;;-2.14;100.00
58979;BME280;44763;50.464;30.612;2024-01-06T05:48:24;100150.94;;;-2.14;100.00
58979;BME280;44763;50.464;30.612;2024-01-06T05:50:26;100148.34;;;-2.17;100.00
58979;BME280;44763;50.464;30.612;2024-01-06T05:52:28;100143.34;;;-2.20;100.00
58979;BME280;44763;50.464;30.612;2024-01-06T05:54:30;100144.01;;;-2.17;100.00
58979;BME280;44763;50.464;30.612;2024-01-06T05:56:32;100140.86;;;-2.07;100.00
58979;BME280;44763;50.464;30.612;2024-01-06T05:58:34;100140.69;;;-2.00;100.00
58979;BME280;44763;50.464;30.612;2024-01-06T06:00:36;100128.98;;;-2.02;100.00
58979;BME280;44763;50.464;30.612;2024-01-06T06:02:38;100122.96;;;-2.08;100.00
58979;BME280;44763;50.464;30.612;2024-01-06T06:04:41;100121.83;;;-2.14;100.00
58979;BME280;44763;50.464;30.612;2024-01-06T06:06:43;100126.52;;;-2.16;100.00
58979;BME280;44763;50.464;30.612;2024-01-06T06:08:45;100126.48;;;-2.10;100.00
58979;BME280;44763;50.464;30.612;2024-01-06T06:10:48;100129.36;;;-2.07;100.00
58979;BME280;44763;50.464;30.612;2024-01-06T06:13:01;100121.13;;;-2.11;100.00
58979;BME280;44763;50.464;30.612;2024-01-06T06:15:04;100109.70;;;-2.20;100.00
58979;BME280;44763;50.464;30.612;2024-01-06T06:17:07;100106.30;;;-2.25;100.00
58979;BME280;44763;50.464;30.612;2024-01-06T06:19:09;100101.95;;;-2.28;100.00
58979;BME280;44763;50.464;30.612;2024-01-06T06:21:11;100098.86;;;-2.16;100.00
58979;BME280;44763;50.464;30.612;2024-01-06T06:23:13;100098.98;;;-2.06;100.00
58979;BME280;44763;50.464;30.612;2024-01-06T06:25:15;100097.48;;;-2.05;100.00
58979;BME280;44763;50.464;30.612;2024-01-06T06:27:17;100096.73;;;-2.08;100.00
58979;BME280;44763;50.464;30.612;2024-01-06T06:29:18;100092.86;;;-2.13;100.00
58979;BME280;44763;50.464;30.612;2024-01-06T06:31:22;100091.07;;;-2.14;100.00
58979;BME280;44763;50.464;30.612;2024-01-06T06:33:24;100096.61;;;-2.14;100.00
58979;BME280;44763;50.464;30.612;2024-01-06T06:35:26;100095.63;;;-2.05;100.00
58979;BME280;44763;50.464;30.612;2024-01-06T06:37:28;100092.71;;;-1.97;100.00
58979;BME280;44763;50.464;30.612;2024-01-06T06:39:30;100089.67;;;-1.98;100.00
58979;BME280;44763;50.464;30.612;2024-01-06T06:41:33;100090.26;;;-2.04;100.00
58979;BME280;44763;50.464;30.612;2024-01-06T06:43:35;100079.98;;;-2.10;100.00
58979;BME280;44763;50.464;30.612;2024-01-06T06:45:37;100078.64;;;-2.13;100.00
58979;BME280;44763;50.464;30.612;2024-01-06T06:47:39;100075.11;;;-2.06;100.00
58979;BME280;44763;50.464;30.612;2024-01-06T06:49:41;100069.66;;;-2.02;100.00
58979;BME280;44763;50.464;30.612;2024-01-06T06:51:43;100067.27;;;-2.01;100.00
58979;BME280;44763;50.464;30.612;2024-01-06T06:53:49;100071.34;;;-2.04;100.00
58979;BME280;44763;50.464;30.612;2024-01-06T06:55:51;100081.27;;;-2.06;100.00
58979;BME280;44763;50.464;30.612;2024-01-06T06:57:53;100075.30;;;-1.99;100.00
58979;BME280;44763;50.464;30.612;2024-01-06T06:59:55;100078.42;;;-1.89;100.00
58979;BME280;44763;50.464;30.612;2024-01-06T07:01:57;100082.86;;;-1.84;100.00
58979;BME280;44763;50.464;30.612;2024-01-06T07:03:59;100087.23;;;-1.88;100.00
58979;BME280;44763;50.464;30.612;2024-01-06T07:06:01;100091.73;;;-1.93;100.00
58979;BME280;44763;50.464;30.612;2024-01-06T07:08:03;100100.35;;;-1.99;100.00
58979;BME280;44763;50.464;30.612;2024-01-06T07:10:06;100103.33;;;-1.97;100.00
58979;BME280;44763;50.464;30.612;2024-01-06T07:12:08;100098.36;;;-1.86;100.00
58979;BME280;44763;50.464;30.612;2024-01-06T07:14:10;100097.70;;;-1.77;100.00
58979;BME280;44763;50.464;30.612;2024-01-06T07:16:12;100093.22;;;-1.78;100.00
58979;BME280;44763;50.464;30.612;2024-01-06T07:18:20;100095.62;;;-1.80;100.00
58979;BME280;44763;50.464;30.612;2024-01-06T07:20:25;100092.71;;;-1.83;100.00
58979;BME280;44763;50.464;30.612;2024-01-06T07:22:27;100091.70;;;-1.86;100.00
58979;BME280;44763;50.464;30.612;2024-01-06T07:24:28;100091.78;;;-1.82;100.00
58979;BME280;44763;50.464;30.612;2024-01-06T07:26:30;100089.05;;;-1.73;100.00
58979;BME280;44763;50.464;30.612;2024-01-06T07:28:32;100087.66;;;-1.66;100.00
58979;BME280;44763;50.464;30.612;2024-01-06T07:30:34;100091.58;;;-1.65;100.00
58979;BME280;44763;50.464;30.612;2024-01-06T07:32:36;100094.83;;;-1.67;100.00
58979;BME280;44763;50.464;30.612;2024-01-06T07:34:40;100088.93;;;-1.71;100.00
58979;BME280;44763;50.464;30.612;2024-01-06T07:36:42;100092.88;;;-1.73;100.00
58979;BME280;44763;50.464;30.612;2024-01-06T07:38:44;100090.14;;;-1.64;100.00
58979;BME280;44763;50.464;30.612;2024-01-06T07:40:47;100090.31;;;-1.55;100.00
58979;BME280;44763;50.464;30.612;2024-01-06T07:42:51;100088.88;;;-1.50;100.00
58979;BME280;44763;50.464;30.612;2024-01-06T07:44:53;100087.13;;;-1.55;100.00
58979;BME280;44763;50.464;30.612;2024-01-06T07:46:56;100082.29;;;-1.60;100.00
58979;BME280;44763;50.464;30.612;2024-01-06T07:48:57;100084.91;;;-1.62;100.00
58979;BME280;44763;50.464;30.612;2024-01-06T07:50:59;100082.83;;;-1.58;100.00
58979;BME280;44763;50.464;30.612;2024-01-06T07:53:01;100083.29;;;-1.50;100.00
58979;BME280;44763;50.464;30.612;2024-01-06T07:55:03;100088.23;;;-1.46;100.00
58979;BME280;44763;50.464;30.612;2024-01-06T07:57:05;100086.01;;;-1.46;100.00
58979;BME280;44763;50.464;30.612;2024-01-06T07:59:07;100085.69;;;-1.52;100.00
58979;BME280;44763;50.464;30.612;2024-01-06T08:01:09;100076.06;;;-1.55;100.00
58979;BME280;44763;50.464;30.612;2024-01-06T08:03:12;100075.19;;;-1.53;100.00
58979;BME280;44763;50.464;30.612;2024-01-06T08:05:13;100071.00;;;-1.44;100.00
58979;BME280;44763;50.464;30.612;2024-01-06T08:07:16;100075.95;;;-1.33;100.00
58979;BME280;44763;50.464;30.612;2024-01-06T08:09:17;100074.04;;;-1.29;100.00
58979;BME280;44763;50.464;30.612;2024-01-06T08:11:19;100081.31;;;-1.26;100.00
58979;BME280;44763;50.464;30.612;2024-01-06T08:13:21;100069.30;;;-1.24;100.00
58979;BME280;44763;50.464;30.612;2024-01-06T08:15:23;100072.59;;;-1.22;100.00
58979;BME280;44763;50.464;30.612;2024-01-06T08:17:25;100077.53;;;-1.20;100.00
58979;BME280;44763;50.464;30.612;2024-01-06T08:19:27;100072.13;;;-1.13;100.00
58979;BME280;44763;50.464;30.612;2024-01-06T08:21:31;100073.35;;;-1.07;100.00
58979;BME280;44763;50.464;30.612;2024-01-06T08:23:33;100079.93;;;-1.09;100.00
58979;BME280;44763;50.464;30.612;2024-01-06T08:25:35;100079.45;;;-1.11;100.00
58979;BME280;44763;50.464;30.612;2024-01-06T08:27:36;100077.65;;;-1.15;100.00
58979;BME280;44763;50.464;30.612;2024-01-06T08:29:38;100078.52;;;-1.10;100.00
58979;BME280;44763;50.464;30.612;2024-01-06T08:31:40;100069.48;;;-0.99;100.00
58979;BME280;44763;50.464;30.612;2024-01-06T08:33:42;100065.38;;;-0.90;100.00
58979;BME280;44763;50.464;30.612;2024-01-06T08:35:45;100062.24;;;-0.87;100.00
58979;BME280;44763;50.464;30.612;2024-01-06T08:37:47;100068.86;;;-0.92;100.00
58979;BME280;44763;50.464;30.612;2024-01-06T08:39:49;100072.37;;;-0.96;100.00
58979;BME280;44763;50.464;30.612;2024-01-06T08:41:51;100064.40;;;-1.00;100.00
58979;BME280;44763;50.464;30.612;2024-01-06T08:43:54;100072.20;;;-0.99;100.00
58979;BME280;44763;50.464;30.612;2024-01-06T08:45:56;100068.81;;;-0.91;100.00
58979;BME280;44763;50.464;30.612;2024-01-06T08:47:58;100070.90;;;-0.82;100.00
58979;BME280;44763;50.464;30.612;2024-01-06T08:50:00;100078.41;;;-0.78;100.00
58979;BME280;44763;50.464;30.612;2024-01-06T08:52:02;100076.20;;;-0.72;100.00
58979;BME280;44763;50.464;30.612;2024-01-06T08:54:04;100073.02;;;-0.69;100.00
58979;BME280;44763;50.464;30.612;2024-01-06T08:56:07;100067.78;;;-0.67;100.00
58979;BME280;44763;50.464;30.612;2024-01-06T08:58:10;100066.90;;;-0.63;100.00
58979;BME280;44763;50.464;30.612;2024-01-06T09:00:12;100065.96;;;-0.57;100.00
58979;BME280;44763;50.464;30.612;2024-01-06T09:02:14;100065.21;;;-0.54;100.00
58979;BME280;44763;50.464;30.612;2024-01-06T09:04:16;100062.82;;;-0.49;100.00
58979;BME280;44763;50.464;30.612;2024-01-06T09:06:18;100053.69;;;-0.44;100.00
58979;BME280;44763;50.464;30.612;2024-01-06T09:08:19;100053.17;;;-0.42;100.00
58979;BME280;44763;50.464;30.612;2024-01-06T09:10:21;100062.19;;;-0.45;100.00
58979;BME280;44763;50.464;30.612;2024-01-06T09:12:23;100061.45;;;-0.49;100.00
58979;BME280;44763;50.464;30.612;2024-01-06T09:14:26;100064.77;;;-0.51;100.00
58979;BME280;44763;50.464;30.612;2024-01-06T09:16:27;100066.51;;;-0.47;100.00
58979;BME280;44763;50.464;30.612;2024-01-06T09:18:29;100059.52;;;-0.36;100.00
58979;BME280;44763;50.464;30.612;2024-01-06T09:20:31;100053.55;;;-0.31;100.00
58979;BME280;44763;50.464;30.612;2024-01-06T09:22:33;100053.61;;;-0.32;100.00
58979;BME280;44763;50.464;30.612;2024-01-06T09:24:35;100048.79;;;-0.37;100.00
58979;BME280;44763;50.464;30.612;2024-01-06T09:26:36;100049.60;;;-0.41;100.00
58979;BME280;44763;50.464;30.612;2024-01-06T09:28:38;100051.08;;;-0.35;100.00
58979;BME280;44763;50.464;30.612;2024-01-06T09:30:41;100043.59;;;-0.31;100.00
58979;BME280;44763;50.464;30.612;2024-01-06T09:32:43;100040.52;;;-0.34;100.00
58979;BME280;44763;50.464;30.612;2024-01-06T09:34:44;100036.39;;;-0.37;100.00
58979;BME280;44763;50.464;30.612;2024-01-06T09:36:46;100030.70;;;-0.40;100.00
58979;BME280;44763;50.464;30.612;2024-01-06T09:38:48;100026.35;;;-0.38;100.00
58979;BME280;44763;50.464;30.612;2024-01-06T09:40:50;100022.36;;;-0.36;100.00
58979;BME280;44763;50.464;30.612;2024-01-06T09:42:52;100020.77;;;-0.34;100.00
58979;BME280;44763;50.464;30.612;2024-01-06T09:44:58;100022.05;;;-0.30;100.00
58979;BME280;44763;50.464;30.612;2024-01-06T09:47:01;100013.21;;;-0.31;100.00
58979;BME280;44763;50.464;30.612;2024-01-06T09:49:03;100008.09;;;-0.34;100.00
58979;BME280;44763;50.464;30.612;2024-01-06T09:51:05;99993.64;;;-0.42;100.00
58979;BME280;44763;50.464;30.612;2024-01-06T09:53:12;99984.27;;;-0.48;100.00
58979;BME280;44763;50.464;30.612;2024-01-06T09:55:15;99981.38;;;-0.52;100.00
58979;BME280;44763;50.464;30.612;2024-01-06T09:57:17;99980.86;;;-0.47;100.00
58979;BME280;44763;50.464;30.612;2024-01-06T09:59:19;99979.72;;;-0.42;100.00
58979;BME280;44763;50.464;30.612;2024-01-06T10:01:22;99970.79;;;-0.38;100.00
58979;BME280;44763;50.464;30.612;2024-01-06T10:03:24;99966.71;;;-0.37;100.00
58979;BME280;44763;50.464;30.612;2024-01-06T10:05:28;99961.81;;;-0.41;100.00
58979;BME280;44763;50.464;30.612;2024-01-06T10:07:30;99954.33;;;-0.43;100.00
58979;BME280;44763;50.464;30.612;2024-01-06T10:09:31;99949.36;;;-0.42;100.00
58979;BME280;44763;50.464;30.612;2024-01-06T10:11:35;99944.81;;;-0.36;100.00
58979;BME280;44763;50.464;30.612;2024-01-06T10:13:37;99952.23;;;-0.30;100.00
58979;BME280;44763;50.464;30.612;2024-01-06T10:15:39;99946.86;;;-0.25;100.00
58979;BME280;44763;50.464;30.612;2024-01-06T10:17:42;99955.73;;;-0.22;100.00
58979;BME280;44763;50.464;30.612;2024-01-06T10:19:45;99952.81;;;-0.21;100.00
58979;BME280;44763;50.464;30.612;2024-01-06T10:21:47;99948.00;;;-0.20;100.00
58979;BME280;44763;50.464;30.612;2024-01-06T10:23:50;99950.48;;;-0.18;100.00